• Join FlightAware (Why Join?)
  • Login
  • US Flag 
08:16AM EST


 

Airport Tracker/Info


-or-


 

Live Flight TrackerFlight Track Log ✈ N27XP ✈ 27-Jan-2014 ✈ KSOP - KIPJ

Flight Track Log - Related Links

Times and Time Zones

All times are in EST time to prevent confusion due to time zone crossing. See the N27XP flight status page for this flight to view local times or setup timezone preferences in your user account.

Time Position Orientation Groundspeed Altitude Reporting Facility
EST Latitude Longitude Course Direction KTS MPH feet Rate Location/Type
10:04AM 35.2849 -79.7746 283° West  Level FlightAware Approximate
10:04AM 35.3094 -79.9922 280° West 251 289 6,000  Level Atlanta Center
10:05AM 35.2967 -79.8393 283° West  Level FlightAware Approximate
10:05AM 35.3222 -80.0628 283° West 253 291 5,900  Level Atlanta Center
10:06AM 35.3084 -79.9040 283° West  Level FlightAware Approximate
10:06AM 35.3331 -80.1461 279° West 249 287 5,000  Level Atlanta Center
10:07AM 35.3167 -79.9691 270° West  Level FlightAware Approximate
10:07AM 35.3442 -80.2272 280° West 239 275 4,500  Level Atlanta Center
10:08AM 35.3170 -80.0354 280° West  Level FlightAware Approximate
10:08AM 35.3569 -80.3056 281° West 238 274 4,000  Level Atlanta Center
10:09AM 35.3265 -80.1006 280° West  Level FlightAware Approximate
10:09AM 35.3697 -80.3839 281° West 232 267 4,000  Level Atlanta Center
10:10AM 35.3360 -80.1659 280° West  Level FlightAware Approximate
10:10AM 35.4053 -80.4639 299° West 242 278 4,000  Level Atlanta Center
10:11AM 35.4367 -80.5314 300° West 241 277 4,000  Level Atlanta Center
10:12AM 35.4764 -80.6114 301° West 242 278 4,100  Climbing Atlanta Center
10:13AM 35.5031 -80.6739 298° West 242 278 4,100 -360 Level Atlanta Center
10:14AM 35.5325 -80.7544 294° West 243 280 3,500 -420 Descending Atlanta Center
10:15AM 35.5325 -80.8308 270° West 236 272 3,300 -120 Descending Atlanta Center
10:16AM 35.5278 -80.8975 265° West 218 251 3,300  Level Atlanta Center
10:18AM 35.5130 -80.9854 282° West  Level Estimated
10:25AM 35.4667 -81.1500 270° West  Level FlightAware Approximate
10:26AM 35.4833 -81.1612 270° West  Level Estimated
10:27AM 35.4833 -81.1612 270° West  Level Estimated
10:28AM 35.4833 -81.1612 270° West  Level Estimated